createdAt,value
2023-04-18T00:00:07.778Z,744.00
2023-04-18T00:01:07.751Z,750.00
2023-04-18T00:02:07.811Z,744.00
2023-04-18T00:03:07.894Z,739.00
2023-04-18T00:04:07.925Z,743.00
2023-04-18T00:05:07.828Z,753.00
2023-04-18T00:06:07.741Z,742.00
2023-04-18T00:07:07.767Z,750.00
2023-04-18T00:08:07.728Z,751.00
2023-04-18T00:09:07.817Z,742.00
2023-04-18T00:10:07.709Z,745.00
2023-04-18T00:11:07.710Z,753.00
2023-04-18T00:12:07.703Z,754.00
2023-04-18T00:13:07.682Z,759.00
2023-04-18T00:14:07.662Z,751.00
2023-04-18T00:15:07.655Z,746.00
2023-04-18T00:16:07.649Z,742.00
2023-04-18T00:17:07.742Z,739.00
2023-04-18T00:18:07.703Z,740.00
2023-04-18T00:19:07.661Z,736.00
2023-04-18T00:20:07.667Z,736.00
2023-04-18T00:21:07.675Z,740.00
2023-04-18T00:22:07.692Z,746.00
2023-04-18T00:23:07.718Z,746.00
2023-04-18T00:24:07.746Z,751.00
2023-04-18T00:25:07.756Z,748.00
2023-04-18T00:26:07.753Z,746.00
2023-04-18T00:27:07.758Z,749.00
2023-04-18T00:28:07.816Z,752.00
2023-04-18T00:29:07.766Z,754.00
2023-04-18T00:30:07.761Z,759.00
2023-04-18T00:31:07.980Z,760.00
2023-04-18T00:32:07.759Z,759.00
2023-04-18T00:33:07.790Z,759.00
2023-04-18T00:34:07.832Z,757.00
2023-04-18T00:35:07.901Z,753.00
2023-04-18T00:36:07.791Z,754.00
2023-04-18T00:37:07.799Z,749.00
2023-04-18T00:38:07.801Z,744.00
2023-04-18T00:39:07.785Z,736.00
2023-04-18T00:40:07.807Z,731.00
2023-04-18T00:41:07.827Z,727.00
2023-04-18T00:42:07.811Z,728.00
2023-04-18T00:43:07.820Z,727.00
2023-04-18T00:44:07.807Z,726.00
2023-04-18T00:45:07.838Z,724.00
2023-04-18T00:46:07.892Z,725.00
2023-04-18T00:47:07.890Z,723.00
2023-04-18T00:48:07.957Z,720.00
2023-04-18T00:49:07.942Z,720.00
2023-04-18T00:50:07.945Z,728.00
2023-04-18T00:51:07.971Z,733.00
2023-04-18T00:52:07.984Z,736.00
2023-04-18T00:53:08.016Z,728.00
2023-04-18T00:54:08.009Z,721.00
2023-04-18T00:55:08.011Z,716.00
2023-04-18T00:56:08.000Z,715.00
2023-04-18T00:57:08.029Z,714.00
2023-04-18T00:58:08.869Z,719.00
2023-04-18T00:59:08.056Z,730.00
2023-04-18T01:00:08.058Z,729.00
2023-04-18T01:01:08.125Z,711.00
2023-04-18T01:02:08.179Z,715.00
2023-04-18T01:03:08.298Z,718.00
2023-04-18T01:04:08.196Z,717.00
2023-04-18T01:05:08.143Z,719.00
2023-04-18T01:06:08.136Z,723.00
2023-04-18T01:07:08.146Z,717.00
2023-04-18T01:08:08.220Z,717.00
2023-04-18T01:09:08.173Z,721.00
2023-04-18T01:10:08.165Z,728.00
2023-04-18T01:11:08.155Z,730.00
2023-04-18T01:12:08.161Z,732.00
2023-04-18T01:13:08.152Z,734.00
2023-04-18T01:14:08.166Z,736.00
2023-04-18T01:15:08.158Z,728.00
2023-04-18T01:16:08.196Z,719.00
2023-04-18T01:17:08.163Z,718.00
2023-04-18T01:18:08.191Z,722.00
2023-04-18T01:19:08.214Z,730.00
2023-04-18T01:20:08.245Z,725.00
2023-04-18T01:21:08.239Z,723.00
2023-04-18T01:22:08.243Z,721.00
2023-04-18T01:23:08.257Z,719.00
2023-04-18T01:24:08.259Z,715.00
2023-04-18T01:25:08.224Z,714.00
2023-04-18T01:26:08.220Z,717.00
2023-04-18T01:27:08.306Z,721.00
2023-04-18T01:28:08.207Z,724.00
2023-04-18T01:29:08.219Z,724.00
2023-04-18T01:30:08.234Z,725.00
2023-04-18T01:31:08.242Z,730.00
2023-04-18T01:32:08.206Z,732.00
2023-04-18T01:33:08.180Z,736.00
2023-04-18T01:34:08.195Z,737.00
2023-04-18T01:35:08.182Z,739.00
2023-04-18T01:36:08.150Z,739.00
2023-04-18T01:37:08.144Z,738.00
2023-04-18T01:38:08.155Z,738.00
2023-04-18T01:39:08.212Z,739.00
2023-04-18T01:40:08.171Z,734.00
2023-04-18T01:41:08.190Z,731.00
2023-04-18T01:42:08.205Z,725.00
2023-04-18T01:43:08.223Z,718.00
2023-04-18T01:44:08.248Z,715.00
2023-04-18T01:45:08.261Z,712.00
2023-04-18T01:46:08.315Z,708.00
2023-04-18T01:47:08.291Z,712.00
2023-04-18T01:48:08.296Z,711.00
2023-04-18T01:49:08.285Z,708.00
2023-04-18T01:50:08.300Z,704.00
2023-04-18T01:51:08.307Z,702.00
2023-04-18T01:52:08.321Z,702.00
2023-04-18T01:53:08.323Z,704.00
2023-04-18T01:54:08.342Z,702.00
2023-04-18T01:55:08.346Z,702.00
2023-04-18T01:56:08.362Z,703.00
2023-04-18T01:57:08.373Z,706.00
2023-04-18T01:58:08.398Z,709.00
2023-04-18T01:59:08.407Z,711.00
2023-04-18T02:00:08.427Z,721.00
2023-04-18T02:01:08.518Z,728.00
2023-04-18T02:02:08.571Z,728.00
2023-04-18T02:03:08.541Z,726.00
2023-04-18T02:04:08.513Z,719.00
2023-04-18T02:05:08.530Z,709.00
2023-04-18T02:06:08.465Z,710.00
2023-04-18T02:07:08.499Z,714.00
2023-04-18T02:08:08.500Z,721.00
2023-04-18T02:09:08.522Z,726.00
2023-04-18T02:10:08.522Z,722.00
2023-04-18T02:11:08.522Z,721.00
2023-04-18T02:12:08.572Z,723.00
2023-04-18T02:13:08.569Z,722.00
2023-04-18T02:14:08.578Z,714.00
2023-04-18T02:15:08.629Z,709.00
2023-04-18T02:16:08.658Z,706.00
2023-04-18T02:17:08.665Z,707.00
2023-04-18T02:18:08.701Z,708.00
2023-04-18T02:19:08.739Z,715.00
2023-04-18T02:20:08.748Z,715.00
2023-04-18T02:21:08.767Z,714.00
2023-04-18T02:22:08.802Z,707.00
2023-04-18T02:23:08.816Z,704.00
2023-04-18T02:24:08.856Z,702.00
2023-04-18T02:25:08.868Z,700.00
2023-04-18T02:26:08.911Z,700.00
2023-04-18T02:27:08.943Z,700.00
2023-04-18T02:28:08.956Z,702.00
2023-04-18T02:29:08.967Z,712.00
2023-04-18T02:30:08.980Z,718.00
2023-04-18T02:31:09.006Z,719.00
2023-04-18T02:32:09.148Z,711.00
2023-04-18T02:33:09.055Z,708.00
2023-04-18T02:34:09.058Z,710.00
2023-04-18T02:35:09.068Z,711.00
2023-04-18T02:36:09.102Z,706.00
2023-04-18T02:37:09.125Z,704.00
2023-04-18T02:38:09.133Z,708.00
2023-04-18T02:39:09.146Z,711.00
2023-04-18T02:40:09.180Z,707.00
2023-04-18T02:41:09.200Z,706.00
2023-04-18T02:42:09.209Z,708.00
2023-04-18T02:43:09.220Z,708.00
2023-04-18T02:44:09.238Z,708.00
2023-04-18T02:45:09.246Z,714.00
2023-04-18T02:46:09.265Z,715.00
2023-04-18T02:47:09.228Z,714.00
2023-04-18T02:48:09.288Z,714.00
2023-04-18T02:49:09.246Z,709.00
2023-04-18T02:50:09.259Z,709.00
2023-04-18T02:51:09.275Z,712.00
2023-04-18T02:52:09.285Z,713.00
2023-04-18T02:53:09.305Z,713.00
2023-04-18T02:54:09.316Z,712.00
2023-04-18T02:55:09.344Z,708.00
2023-04-18T02:56:09.352Z,706.00
2023-04-18T02:57:09.349Z,706.00
2023-04-18T02:58:09.348Z,702.00
2023-04-18T02:59:09.366Z,710.00
2023-04-18T03:00:09.380Z,714.00
2023-04-18T03:01:09.432Z,718.00
2023-04-18T03:02:09.465Z,717.00
2023-04-18T03:03:09.471Z,707.00
2023-04-18T03:04:09.428Z,702.00
2023-04-18T03:05:09.460Z,697.00
2023-04-18T03:06:09.455Z,692.00
2023-04-18T03:07:09.478Z,691.00
2023-04-18T03:08:09.498Z,691.00
2023-04-18T03:09:09.502Z,691.00
2023-04-18T03:10:09.550Z,692.00
2023-04-18T03:11:09.538Z,694.00
2023-04-18T03:12:09.545Z,695.00
2023-04-18T03:13:09.556Z,695.00
2023-04-18T03:14:09.572Z,697.00
2023-04-18T03:15:09.571Z,701.00
2023-04-18T03:16:09.610Z,705.00
2023-04-18T03:17:09.568Z,701.00
2023-04-18T03:18:09.588Z,699.00
2023-04-18T03:19:09.623Z,700.00
2023-04-18T03:20:09.651Z,697.00
2023-04-18T03:21:09.660Z,696.00
2023-04-18T03:22:09.681Z,693.00
2023-04-18T03:23:09.715Z,694.00
2023-04-18T03:24:11.956Z,693.00
2023-04-18T03:25:09.803Z,691.00
2023-04-18T03:26:09.848Z,689.00
2023-04-18T03:27:09.838Z,692.00
2023-04-18T03:28:09.855Z,693.00
2023-04-18T03:29:09.879Z,693.00
2023-04-18T03:30:09.915Z,693.00
2023-04-18T03:31:09.925Z,692.00
2023-04-18T03:32:09.925Z,692.00
2023-04-18T03:33:09.930Z,693.00
2023-04-18T03:34:09.959Z,690.00
2023-04-18T03:35:09.972Z,691.00
2023-04-18T03:36:09.960Z,690.00
2023-04-18T03:37:09.978Z,688.00
2023-04-18T03:38:09.996Z,688.00
2023-04-18T03:39:10.008Z,688.00
2023-04-18T03:40:10.019Z,690.00
2023-04-18T03:41:10.114Z,688.00
2023-04-18T03:42:10.033Z,687.00
2023-04-18T03:43:10.033Z,686.00
2023-04-18T03:44:10.052Z,685.00
2023-04-18T03:45:10.077Z,684.00
2023-04-18T03:46:10.126Z,685.00
2023-04-18T03:47:10.118Z,686.00
2023-04-18T03:48:10.118Z,687.00
2023-04-18T03:49:10.135Z,686.00
2023-04-18T03:50:10.140Z,681.00
2023-04-18T03:51:10.144Z,679.00
2023-04-18T03:52:10.160Z,679.00
2023-04-18T03:53:10.144Z,677.00
2023-04-18T03:54:10.177Z,674.00
2023-04-18T03:55:10.173Z,674.00
2023-04-18T03:56:10.186Z,675.00
2023-04-18T03:57:10.192Z,675.00
2023-04-18T03:58:10.184Z,677.00
2023-04-18T03:59:10.222Z,679.00
2023-04-18T04:00:10.227Z,678.00
2023-04-18T04:01:10.235Z,675.00
2023-04-18T04:02:10.302Z,675.00
2023-04-18T04:03:10.366Z,676.00
2023-04-18T04:04:10.305Z,679.00
2023-04-18T04:05:10.428Z,683.00
2023-04-18T04:06:10.311Z,683.00
2023-04-18T04:07:10.338Z,681.00
2023-04-18T04:08:10.354Z,681.00
2023-04-18T04:09:10.369Z,681.00
2023-04-18T04:10:10.403Z,681.00
2023-04-18T04:11:10.419Z,680.00
2023-04-18T04:12:10.421Z,682.00
2023-04-18T04:13:10.427Z,683.00
2023-04-18T04:14:10.448Z,683.00
2023-04-18T04:15:10.449Z,688.00
2023-04-18T04:16:10.466Z,689.00
2023-04-18T04:17:10.443Z,685.00
2023-04-18T04:18:10.627Z,685.00
2023-04-18T04:19:10.451Z,685.00
2023-04-18T04:20:10.438Z,686.00
2023-04-18T04:21:10.459Z,683.00
2023-04-18T04:22:10.449Z,685.00
2023-04-18T04:23:10.467Z,682.00
2023-04-18T04:24:10.474Z,682.00
2023-04-18T04:25:10.494Z,680.00
2023-04-18T04:26:10.517Z,680.00
2023-04-18T04:27:10.535Z,681.00
2023-04-18T04:28:10.546Z,680.00
2023-04-18T04:29:10.543Z,678.00
2023-04-18T04:30:13.153Z,678.00
2023-04-18T04:31:10.543Z,676.00
2023-04-18T04:32:10.483Z,677.00
2023-04-18T04:33:10.411Z,681.00
2023-04-18T04:34:10.376Z,682.00
2023-04-18T04:35:10.322Z,682.00
2023-04-18T04:36:10.268Z,682.00
2023-04-18T04:37:10.237Z,682.00
2023-04-18T04:38:10.181Z,680.00
2023-04-18T04:39:10.144Z,679.00
2023-04-18T04:40:10.111Z,681.00
2023-04-18T04:41:10.057Z,679.00
2023-04-18T04:42:10.016Z,680.00
2023-04-18T04:43:09.962Z,684.00
2023-04-18T04:44:09.935Z,683.00
2023-04-18T04:45:09.868Z,685.00
2023-04-18T04:46:09.873Z,685.00
2023-04-18T04:47:09.816Z,681.00
2023-04-18T04:48:09.759Z,680.00
2023-04-18T04:49:09.709Z,681.00
2023-04-18T04:50:09.657Z,681.00
2023-04-18T04:51:09.610Z,682.00
2023-04-18T04:52:09.563Z,681.00
2023-04-18T04:53:09.516Z,683.00
2023-04-18T04:54:09.476Z,685.00
2023-04-18T04:55:09.443Z,683.00
2023-04-18T04:56:09.397Z,678.00
2023-04-18T04:57:09.345Z,677.00
2023-04-18T04:58:09.291Z,678.00
2023-04-18T04:59:09.252Z,678.00
2023-04-18T05:00:09.206Z,679.00
2023-04-18T05:01:09.262Z,681.00
2023-04-18T05:02:09.216Z,680.00
2023-04-18T05:03:09.305Z,678.00
2023-04-18T05:04:09.164Z,679.00
2023-04-18T05:05:09.001Z,683.00
2023-04-18T05:06:08.948Z,701.00
2023-04-18T05:07:08.911Z,782.00
2023-04-18T05:08:08.889Z,842.00
2023-04-18T05:09:08.858Z,747.00
2023-04-18T05:10:08.823Z,769.00
2023-04-18T05:11:08.783Z,745.00
2023-04-18T05:12:08.801Z,741.00
2023-04-18T05:13:08.841Z,724.00
2023-04-18T05:14:08.853Z,752.00
2023-04-18T05:15:08.866Z,766.00
2023-04-18T05:16:08.835Z,774.00
2023-04-18T05:17:08.966Z,827.00
2023-04-18T05:18:08.810Z,827.00
2023-04-18T05:19:08.752Z,789.00
2023-04-18T05:20:08.718Z,826.00
2023-04-18T05:21:08.702Z,835.00
2023-04-18T05:22:08.670Z,873.00
2023-04-18T05:23:10.502Z,874.00
2023-04-18T05:24:08.642Z,945.00
2023-04-18T05:25:09.490Z,965.00
2023-04-18T05:26:08.568Z,1054.00
2023-04-18T05:27:09.491Z,1057.00
2023-04-18T05:28:08.582Z,1057.00
2023-04-18T05:29:08.500Z,1064.00
2023-04-18T05:30:08.475Z,1084.00
2023-04-18T05:31:08.523Z,1104.00
2023-04-18T05:32:08.420Z,1101.00
2023-04-18T05:33:08.416Z,1092.00
2023-04-18T05:34:08.337Z,964.00
2023-04-18T05:35:08.333Z,1084.00
2023-04-18T05:36:08.265Z,1052.00
2023-04-18T05:37:08.221Z,964.00
2023-04-18T05:38:08.185Z,929.00
2023-04-18T05:39:08.238Z,966.00
2023-04-18T05:40:08.140Z,962.00
2023-04-18T05:41:08.105Z,965.00
2023-04-18T05:42:08.055Z,968.00
2023-04-18T05:43:08.025Z,1047.00
2023-04-18T05:44:07.996Z,1067.00
2023-04-18T05:45:07.958Z,1085.00
2023-04-18T05:46:07.944Z,1089.00
2023-04-18T05:47:07.876Z,1091.00
2023-04-18T05:48:07.934Z,1092.00
2023-04-18T05:49:07.801Z,1088.00
2023-04-18T05:50:07.761Z,1084.00
2023-04-18T05:51:07.815Z,1058.00
2023-04-18T05:52:07.764Z,924.00
2023-04-18T05:53:07.792Z,911.00
2023-04-18T05:54:07.830Z,964.00
2023-04-18T05:55:07.850Z,994.00
2023-04-18T05:56:07.876Z,994.00
2023-04-18T05:57:07.918Z,993.00
2023-04-18T05:58:07.936Z,1096.00
2023-04-18T05:59:08.432Z,1006.00
2023-04-18T06:00:07.896Z,977.00
2023-04-18T06:01:07.902Z,951.00
2023-04-18T06:02:07.966Z,944.00
2023-04-18T06:03:10.684Z,951.00
2023-04-18T06:04:07.982Z,953.00
2023-04-18T06:05:08.076Z,964.00
2023-04-18T06:06:07.772Z,983.00
2023-04-18T06:07:07.731Z,993.00
2023-04-18T06:08:07.694Z,1005.00
2023-04-18T06:09:07.643Z,1012.00
2023-04-18T06:10:07.624Z,1013.00
2023-04-18T06:11:09.562Z,1013.00
2023-04-18T06:12:07.529Z,1007.00
2023-04-18T06:13:08.041Z,1006.00
2023-04-18T06:14:07.438Z,1004.00
2023-04-18T06:15:07.402Z,1002.00
2023-04-18T06:16:07.409Z,997.00
2023-04-18T06:17:07.327Z,993.00
2023-04-18T06:18:07.400Z,992.00
2023-04-18T06:19:07.283Z,993.00
2023-04-18T06:20:07.252Z,991.00
2023-04-18T06:21:07.241Z,988.00
2023-04-18T06:22:07.191Z,974.00
2023-04-18T06:23:07.147Z,995.00
2023-04-18T06:24:07.098Z,1019.00
2023-04-18T06:25:07.077Z,1028.00
2023-04-18T06:26:09.049Z,1128.00
2023-04-18T06:27:09.324Z,1137.00
2023-04-18T06:28:07.969Z,1320.00
2023-04-18T06:29:07.078Z,1331.00
2023-04-18T06:30:06.891Z,1221.00
2023-04-18T06:31:07.528Z,1209.00
2023-04-18T06:32:06.843Z,1202.00
2023-04-18T06:33:06.822Z,1193.00
2023-04-18T06:34:06.786Z,1187.00
2023-04-18T06:35:10.038Z,1183.00
2023-04-18T06:36:06.711Z,1177.00
2023-04-18T06:37:06.704Z,1174.00
2023-04-18T06:38:07.030Z,1168.00
2023-04-18T06:39:06.610Z,1027.00
2023-04-18T06:40:06.562Z,988.00
2023-04-18T06:41:06.542Z,991.00
2023-04-18T06:42:06.476Z,1002.00
2023-04-18T06:43:09.574Z,1022.00
2023-04-18T06:44:06.380Z,1043.00
2023-04-18T06:45:07.038Z,1044.00
2023-04-18T06:46:06.377Z,1010.00
2023-04-18T06:47:06.264Z,1038.00
2023-04-18T06:48:06.305Z,1032.00
2023-04-18T06:49:08.060Z,964.00
2023-04-18T06:50:06.169Z,974.00
2023-04-18T06:51:06.099Z,966.00
2023-04-18T06:52:06.059Z,977.00
2023-04-18T06:53:06.022Z,1017.00
2023-04-18T06:54:07.560Z,1028.00
2023-04-18T06:55:05.943Z,1033.00
2023-04-18T06:56:05.902Z,1035.00
2023-04-18T06:57:05.899Z,1036.00
2023-04-18T06:58:05.860Z,1039.00
2023-04-18T06:59:05.898Z,1040.00
2023-04-18T07:00:05.917Z,1040.00
2023-04-18T07:01:06.921Z,1041.00
2023-04-18T07:02:05.839Z,1040.00
2023-04-18T07:03:07.079Z,1037.00
2023-04-18T07:04:05.882Z,1034.00
2023-04-18T07:05:05.707Z,1037.00
2023-04-18T07:06:06.550Z,1034.00
2023-04-18T07:07:05.751Z,1035.00
2023-04-18T07:08:05.754Z,1032.00
2023-04-18T07:09:05.707Z,1028.00
2023-04-18T07:10:07.506Z,1027.00
2023-04-18T07:11:05.628Z,1025.00
2023-04-18T07:12:05.593Z,1027.00
2023-04-18T07:13:05.564Z,1025.00
2023-04-18T07:14:05.528Z,1014.00
2023-04-18T07:15:05.644Z,982.00
2023-04-18T07:16:05.441Z,966.00
2023-04-18T07:17:05.585Z,951.00
2023-04-18T07:18:05.473Z,968.00
2023-04-18T07:19:05.409Z,998.00
2023-04-18T07:20:05.374Z,1002.00
2023-04-18T07:21:05.360Z,1005.00
2023-04-18T07:22:06.044Z,1073.00
2023-04-18T07:23:05.973Z,1212.00
2023-04-18T07:24:05.255Z,1320.00
2023-04-18T07:25:05.971Z,1367.00
2023-04-18T07:26:05.178Z,1351.00
2023-04-18T07:27:05.138Z,1351.00
2023-04-18T07:28:05.096Z,1348.00
2023-04-18T07:29:05.053Z,1353.00
2023-04-18T07:30:05.551Z,1350.00
2023-04-18T07:31:05.006Z,1187.00
2023-04-18T07:32:06.869Z,1092.00
2023-04-18T07:33:04.968Z,1075.00
2023-04-18T07:34:04.895Z,1061.00
2023-04-18T07:35:04.850Z,1024.00
2023-04-18T07:36:04.856Z,1034.00
2023-04-18T07:37:04.828Z,1045.00
2023-04-18T07:38:04.728Z,1047.00
2023-04-18T07:39:04.698Z,1097.00
2023-04-18T07:40:04.654Z,1081.00
2023-04-18T07:41:04.627Z,1080.00
2023-04-18T07:42:04.600Z,1080.00
2023-04-18T07:43:04.555Z,1080.00
2023-04-18T07:44:04.508Z,1074.00
2023-04-18T07:45:04.480Z,1076.00
2023-04-18T07:46:04.467Z,1085.00
2023-04-18T07:47:04.447Z,1090.00
2023-04-18T07:48:04.413Z,1088.00
2023-04-18T07:49:04.332Z,1082.00
2023-04-18T07:50:05.065Z,1082.00
2023-04-18T07:51:04.257Z,1092.00
2023-04-18T07:52:04.231Z,1089.00
2023-04-18T07:53:04.182Z,1069.00
2023-04-18T07:54:04.152Z,1045.00
2023-04-18T07:55:04.108Z,1057.00
2023-04-18T07:56:05.068Z,1057.00
2023-04-18T07:57:05.598Z,1062.00
2023-04-18T07:58:03.986Z,1058.00
2023-04-18T07:59:03.950Z,1042.00
2023-04-18T08:00:04.494Z,1029.00
2023-04-18T08:01:03.883Z,1026.00
2023-04-18T08:02:03.859Z,1032.00
2023-04-18T08:04:03.928Z,1030.00
2023-04-18T08:05:03.806Z,1028.00
2023-04-18T08:06:03.697Z,1024.00
2023-04-18T08:07:03.653Z,1024.00
2023-04-18T08:08:03.614Z,1022.00
2023-04-18T08:09:03.572Z,1021.00
2023-04-18T08:10:03.553Z,1050.00
2023-04-18T08:11:05.092Z,1068.00
2023-04-18T08:12:03.460Z,1059.00
2023-04-18T08:13:03.449Z,1053.00
2023-04-18T08:14:03.396Z,1116.00
2023-04-18T08:15:03.372Z,1184.00
2023-04-18T08:16:03.364Z,1278.00
2023-04-18T08:17:04.077Z,1288.00
2023-04-18T08:18:03.623Z,1381.00
2023-04-18T08:19:03.334Z,1402.00
2023-04-18T08:20:03.195Z,1500.00
2023-04-18T08:21:03.165Z,1502.00
2023-04-18T08:22:03.141Z,1580.00
2023-04-18T08:23:07.958Z,1512.00
2023-04-18T08:24:04.078Z,1516.00
2023-04-18T08:25:05.560Z,1522.00
2023-04-18T08:26:02.955Z,1545.00
2023-04-18T08:27:02.913Z,1590.00
2023-04-18T08:28:02.884Z,1551.00
2023-04-18T08:29:02.837Z,1512.00
2023-04-18T08:30:02.781Z,1510.00
2023-04-18T08:31:02.722Z,1496.00
2023-04-18T08:32:05.697Z,1464.00
2023-04-18T08:33:02.750Z,1444.00
2023-04-18T08:34:04.523Z,1435.00
2023-04-18T08:35:02.688Z,1429.00
2023-04-18T08:36:02.692Z,1408.00
2023-04-18T08:37:02.720Z,1341.00
2023-04-18T08:38:02.723Z,1301.00
2023-04-18T08:39:02.723Z,1277.00
2023-04-18T08:40:02.764Z,1259.00
2023-04-18T08:41:02.738Z,1223.00
2023-04-18T08:42:02.765Z,1208.00
2023-04-18T08:43:02.781Z,1190.00
2023-04-18T08:44:02.815Z,1176.00
2023-04-18T08:45:02.869Z,1160.00
2023-04-18T08:46:02.921Z,1147.00
2023-04-18T08:47:02.889Z,1138.00
2023-04-18T08:48:03.010Z,1131.00
2023-04-18T08:49:02.925Z,1125.00
2023-04-18T08:50:02.893Z,1122.00
2023-04-18T08:51:02.999Z,1118.00
2023-04-18T08:52:02.809Z,1112.00
2023-04-18T08:53:02.767Z,1108.00
2023-04-18T08:54:02.723Z,1097.00
2023-04-18T08:55:02.712Z,1091.00
2023-04-18T08:56:02.664Z,1090.00
2023-04-18T08:57:02.611Z,1090.00
2023-04-18T08:58:02.603Z,1091.00
2023-04-18T08:59:02.626Z,1092.00
2023-04-18T09:00:02.628Z,1090.00
2023-04-18T09:01:02.651Z,1085.00
2023-04-18T09:02:02.629Z,1085.00
2023-04-18T09:03:02.733Z,1089.00
2023-04-18T09:04:02.512Z,1094.00
2023-04-18T09:05:02.408Z,1095.00
2023-04-18T09:06:02.612Z,1094.00
2023-04-18T09:07:02.346Z,1092.00
2023-04-18T09:08:02.290Z,1090.00
2023-04-18T09:09:02.274Z,1091.00
2023-04-18T09:10:02.276Z,1092.00
2023-04-18T09:11:02.169Z,1093.00
2023-04-18T09:12:02.188Z,1092.00
2023-04-18T09:13:02.236Z,1089.00
2023-04-18T09:14:02.264Z,1093.00
2023-04-18T09:15:06.119Z,1093.00
2023-04-18T09:16:02.256Z,1092.00
2023-04-18T09:17:02.268Z,1110.00
2023-04-18T09:18:02.227Z,1126.00
2023-04-18T09:19:02.151Z,1146.00
2023-04-18T09:20:02.175Z,1197.00
2023-04-18T09:21:02.141Z,1218.00
2023-04-18T09:22:02.053Z,1224.00
2023-04-18T09:23:02.007Z,1238.00
2023-04-18T09:24:01.974Z,1247.00
2023-04-18T09:25:01.947Z,1252.00
2023-04-18T09:26:01.892Z,1245.00
2023-04-18T09:27:02.846Z,1220.00
2023-04-18T09:28:01.826Z,1234.00
2023-04-18T09:29:01.747Z,1260.00
2023-04-18T09:30:01.755Z,1279.00
2023-04-18T09:31:01.831Z,1315.00
2023-04-18T09:32:01.715Z,1296.00
2023-04-18T09:33:01.698Z,1285.00
2023-04-18T09:34:01.498Z,1269.00
2023-04-18T09:35:03.404Z,1194.00
2023-04-18T09:36:01.441Z,1190.00
2023-04-18T09:37:01.385Z,1045.00
2023-04-18T09:38:01.312Z,909.00
2023-04-18T09:39:02.040Z,788.00
2023-04-18T09:40:01.235Z,761.00
2023-04-18T09:41:01.201Z,700.00
2023-04-18T09:42:01.181Z,685.00
2023-04-18T09:43:01.164Z,650.00
2023-04-18T09:44:01.120Z,648.00
2023-04-18T09:45:01.193Z,646.00
2023-04-18T09:46:01.162Z,650.00
2023-04-18T09:47:01.101Z,654.00
2023-04-18T09:48:01.122Z,646.00
2023-04-18T09:49:01.073Z,641.00
2023-04-18T09:50:01.058Z,638.00
2023-04-18T09:51:01.051Z,641.00
2023-04-18T09:52:01.033Z,651.00
2023-04-18T09:53:01.002Z,665.00
2023-04-18T09:54:00.969Z,721.00
2023-04-18T09:55:00.949Z,726.00
2023-04-18T09:56:00.911Z,734.00
2023-04-18T09:57:00.891Z,775.00
2023-04-18T09:58:00.812Z,790.00
2023-04-18T09:59:00.773Z,795.00
2023-04-18T10:00:01.150Z,803.00
2023-04-18T10:01:00.690Z,852.00
2023-04-18T10:02:00.716Z,861.00
2023-04-18T10:03:00.710Z,852.00
2023-04-18T10:04:00.697Z,849.00
2023-04-18T10:05:00.648Z,851.00
2023-04-18T10:06:00.507Z,853.00
2023-04-18T10:07:00.466Z,852.00
2023-04-18T10:08:00.419Z,859.00
2023-04-18T10:09:00.387Z,869.00
2023-04-18T10:10:00.350Z,878.00
2023-04-18T10:11:00.401Z,891.00
2023-04-18T10:12:00.262Z,926.00
2023-04-18T10:13:00.266Z,929.00
2023-04-18T10:14:00.190Z,934.00
2023-04-18T10:15:00.168Z,967.00
2023-04-18T10:16:01.094Z,979.00
2023-04-18T10:17:00.132Z,998.00
2023-04-18T10:18:05.395Z,1001.00
2023-04-18T10:19:01.011Z,1015.00
2023-04-18T10:19:59.977Z,1031.00
2023-04-18T10:21:00.628Z,1035.00
2023-04-18T10:21:59.873Z,1044.00
2023-04-18T10:23:01.596Z,1050.00
2023-04-18T10:23:59.766Z,1055.00
2023-04-18T10:24:59.712Z,1063.00
2023-04-18T10:25:59.681Z,1062.00
2023-04-18T10:26:59.676Z,1055.00
2023-04-18T10:27:59.678Z,1051.00
2023-04-18T10:28:59.685Z,1049.00
2023-04-18T10:29:59.689Z,1054.00
2023-04-18T10:30:59.728Z,1054.00
2023-04-18T10:31:59.845Z,1051.00
2023-04-18T10:32:59.790Z,1051.00
2023-04-18T10:34:05.320Z,1051.00
2023-04-18T10:35:00.733Z,1052.00
2023-04-18T10:35:59.662Z,1054.00
2023-04-18T10:36:59.630Z,1051.00
2023-04-18T10:37:59.624Z,1052.00
2023-04-18T10:38:59.537Z,1050.00
2023-04-18T10:39:59.505Z,1052.00
2023-04-18T10:40:59.448Z,1046.00
2023-04-18T10:41:59.410Z,1043.00
2023-04-18T10:42:59.402Z,1041.00
2023-04-18T10:43:59.411Z,1044.00
2023-04-18T10:44:59.431Z,1045.00
2023-04-18T10:45:59.526Z,1046.00
2023-04-18T10:46:59.474Z,1049.00
2023-04-18T10:48:00.139Z,1049.00
2023-04-18T10:48:59.505Z,1045.00
2023-04-18T10:49:59.522Z,1042.00
2023-04-18T10:50:59.544Z,1037.00
2023-04-18T10:51:59.577Z,1035.00
2023-04-18T10:52:59.594Z,1034.00
2023-04-18T10:53:59.584Z,1033.00
2023-04-18T10:54:59.570Z,1031.00
2023-04-18T10:55:59.594Z,1032.00
2023-04-18T10:56:59.625Z,1030.00
2023-04-18T10:57:59.624Z,1031.00
2023-04-18T10:58:59.636Z,1031.00
2023-04-18T10:59:59.642Z,1029.00
2023-04-18T11:00:59.685Z,1028.00
2023-04-18T11:01:59.696Z,1024.00
2023-04-18T11:02:59.798Z,1032.00
2023-04-18T11:03:59.802Z,1107.00
2023-04-18T11:04:59.666Z,1127.00
2023-04-18T11:05:59.670Z,1132.00
2023-04-18T11:06:59.673Z,1200.00
2023-04-18T11:07:59.620Z,1174.00
2023-04-18T11:08:59.618Z,1166.00
2023-04-18T11:09:59.579Z,1171.00
2023-04-18T11:10:59.582Z,1266.00
2023-04-18T11:11:59.577Z,1160.00
2023-04-18T11:12:59.605Z,1131.00
2023-04-18T11:13:59.629Z,1119.00
2023-04-18T11:14:59.639Z,1111.00
2023-04-18T11:15:59.674Z,1108.00
2023-04-18T11:16:59.740Z,1108.00
2023-04-18T11:17:59.742Z,1113.00
2023-04-18T11:18:59.705Z,1113.00
2023-04-18T11:19:59.713Z,1120.00
2023-04-18T11:20:59.725Z,1135.00
2023-04-18T11:21:59.802Z,1141.00
2023-04-18T11:22:59.757Z,1138.00
2023-04-18T11:23:59.745Z,1142.00
2023-04-18T11:24:59.742Z,1151.00
2023-04-18T11:25:59.781Z,1157.00
2023-04-18T11:26:59.793Z,1161.00
2023-04-18T11:27:59.847Z,1165.00
2023-04-18T11:28:59.822Z,1206.00
2023-04-18T11:29:59.831Z,1213.00
2023-04-18T11:30:59.905Z,1211.00
2023-04-18T11:31:59.867Z,1210.00
2023-04-18T11:32:59.951Z,1325.00
2023-04-18T11:33:59.882Z,1339.00
2023-04-18T11:35:00.678Z,1387.00
2023-04-18T11:35:59.969Z,1429.00
2023-04-18T11:36:59.967Z,1439.00
2023-04-18T11:37:59.959Z,1441.00
2023-04-18T11:39:00.000Z,1438.00
2023-04-18T11:40:00.001Z,1433.00
2023-04-18T11:41:00.001Z,1439.00
2023-04-18T11:42:00.023Z,1481.00
2023-04-18T11:43:00.036Z,1474.00
2023-04-18T11:44:00.038Z,1419.00
2023-04-18T11:45:00.069Z,1423.00
2023-04-18T11:46:00.133Z,1455.00
2023-04-18T11:47:00.170Z,1437.00
2023-04-18T11:48:00.100Z,1453.00
2023-04-18T11:49:00.042Z,1469.00
2023-04-18T11:50:00.056Z,1486.00
2023-04-18T11:51:00.037Z,1362.00
2023-04-18T11:52:00.059Z,1341.00
2023-04-18T11:53:00.023Z,1339.00
2023-04-18T11:54:00.055Z,1297.00
2023-04-18T11:55:00.066Z,1241.00
2023-04-18T11:56:00.113Z,1219.00
2023-04-18T11:57:00.112Z,1232.00
2023-04-18T11:58:01.106Z,1317.00
2023-04-18T11:59:00.093Z,1306.00
2023-04-18T12:00:00.165Z,1323.00
2023-04-18T12:01:00.158Z,1303.00
2023-04-18T12:02:14.410Z,1247.00
2023-04-18T12:03:01.178Z,1242.00
2023-04-18T12:04:00.209Z,1240.00
2023-04-18T12:05:00.255Z,1236.00
2023-04-18T12:06:00.016Z,1222.00
2023-04-18T12:06:59.865Z,1225.00
2023-04-18T12:07:59.817Z,1227.00
2023-04-18T12:09:00.629Z,1228.00
2023-04-18T12:09:59.706Z,1217.00
2023-04-18T12:10:59.672Z,1199.00
2023-04-18T12:11:59.692Z,1202.00
2023-04-18T12:12:59.690Z,1195.00
2023-04-18T12:13:59.713Z,1189.00
2023-04-18T12:14:59.793Z,1184.00
2023-04-18T12:15:59.785Z,1176.00
2023-04-18T12:16:59.735Z,1167.00
2023-04-18T12:17:59.782Z,1161.00
2023-04-18T12:18:59.735Z,1155.00